createdAt,value
2023-05-06T00:01:54.074Z,96.85
2023-05-06T00:04:23.644Z,96.53
2023-05-06T00:06:51.392Z,95.10
2023-05-06T00:09:19.057Z,96.82
2023-05-06T00:11:47.539Z,96.93
2023-05-06T00:14:15.247Z,96.09
2023-05-06T00:16:43.008Z,96.49
2023-05-06T00:19:10.895Z,96.81
2023-05-06T00:21:39.940Z,96.14
2023-05-06T00:24:07.981Z,96.72
2023-05-06T00:26:35.708Z,96.96
2023-05-06T00:29:03.331Z,97.91
2023-05-06T00:31:31.011Z,96.76
2023-05-06T00:33:58.665Z,96.38
2023-05-06T00:36:26.407Z,96.22
2023-05-06T00:38:55.461Z,97.52
2023-05-06T00:41:23.085Z,96.76
2023-05-06T00:43:50.749Z,96.24
2023-05-06T00:46:18.642Z,97.48
2023-05-06T00:48:46.558Z,97.08
2023-05-06T00:51:15.414Z,97.90
2023-05-06T00:53:43.142Z,96.29
2023-05-06T00:56:12.469Z,93.91
2023-05-06T00:58:40.477Z,93.81
2023-05-06T01:01:08.304Z,93.27
2023-05-06T01:03:36.206Z,94.89
2023-05-06T01:06:13.019Z,93.57
2023-05-06T01:08:48.054Z,94.98
2023-05-06T01:11:24.557Z,93.14
2023-05-06T01:14:00.141Z,91.02
2023-05-06T01:16:30.826Z,95.40
2023-05-06T01:19:00.595Z,94.15
2023-05-06T01:21:34.631Z,94.53
2023-05-06T01:24:03.698Z,95.04
2023-05-06T01:26:31.529Z,91.64
2023-05-06T01:29:01.934Z,96.01
2023-05-06T01:31:36.503Z,95.50
2023-05-06T01:34:14.356Z,95.58
2023-05-06T01:36:48.596Z,97.71
2023-05-06T01:39:19.753Z,98.20
2023-05-06T01:41:49.910Z,94.70
2023-05-06T01:44:18.402Z,92.94
2023-05-06T01:46:46.476Z,97.13
2023-05-06T01:49:18.001Z,100.00
2023-05-06T01:51:48.895Z,99.90
2023-05-06T01:54:18.465Z,97.96
2023-05-06T01:56:46.519Z,99.25
2023-05-06T01:59:14.239Z,100.00
2023-05-06T02:01:41.945Z,99.89
2023-05-06T02:04:09.591Z,100.00
2023-05-06T02:06:37.362Z,100.00
2023-05-06T02:09:05.272Z,100.00
2023-05-06T02:11:34.233Z,100.00
2023-05-06T02:14:02.163Z,99.35
2023-05-06T02:16:30.187Z,100.00
2023-05-06T02:18:57.912Z,100.00
2023-05-06T02:21:25.570Z,99.57
2023-05-06T02:23:53.188Z,100.00
2023-05-06T02:26:20.905Z,100.00
2023-05-06T02:28:50.057Z,99.44
2023-05-06T02:31:18.101Z,99.95
2023-05-06T02:33:46.592Z,100.00
2023-05-06T02:36:14.260Z,100.00
2023-05-06T02:38:41.904Z,100.00
2023-05-06T02:41:10.542Z,100.00
2023-05-06T02:43:38.390Z,100.00
2023-05-06T02:46:07.639Z,100.00
2023-05-06T02:48:35.380Z,100.00
2023-05-06T02:51:03.640Z,100.00
2023-05-06T02:53:31.322Z,100.00
2023-05-06T02:55:58.959Z,100.00
2023-05-06T02:58:26.682Z,100.00
2023-05-06T03:00:54.320Z,100.00
2023-05-06T03:03:23.932Z,100.00
2023-05-06T03:05:51.564Z,100.00
2023-05-06T03:08:19.272Z,100.00
2023-05-06T03:10:46.910Z,100.00
2023-05-06T03:13:14.743Z,100.00
2023-05-06T03:15:42.499Z,100.00
2023-05-06T03:18:10.303Z,100.00
2023-05-06T03:20:39.365Z,100.00
2023-05-06T03:23:07.016Z,100.00
2023-05-06T03:25:35.151Z,100.00
2023-05-06T03:28:02.844Z,100.00
2023-05-06T03:30:30.508Z,100.00
2023-05-06T03:32:58.934Z,100.00
2023-05-06T03:35:26.701Z,100.00
2023-05-06T03:37:55.802Z,100.00
2023-05-06T03:40:23.524Z,100.00
2023-05-06T03:42:51.158Z,100.00
2023-05-06T03:45:18.875Z,100.00
2023-05-06T03:47:46.843Z,100.00
2023-05-06T03:50:15.316Z,100.00
2023-05-06T03:52:43.324Z,100.00
2023-05-06T03:55:12.732Z,100.00
2023-05-06T03:57:40.661Z,100.00
2023-05-06T04:00:09.844Z,100.00
2023-05-06T04:02:38.171Z,100.00
2023-05-06T04:05:07.723Z,100.00
2023-05-06T04:07:35.905Z,100.00
2023-05-06T04:10:03.571Z,100.00
2023-05-06T04:12:32.655Z,100.00
2023-05-06T04:15:00.336Z,100.00
2023-05-06T04:17:27.983Z,100.00
2023-05-06T04:19:55.965Z,100.00
2023-05-06T04:22:23.587Z,100.00
2023-05-06T04:24:51.823Z,100.00
2023-05-06T04:27:19.425Z,100.00
2023-05-06T04:29:48.433Z,100.00
2023-05-06T04:32:18.029Z,100.00
2023-05-06T04:34:47.323Z,100.00
2023-05-06T04:37:15.284Z,100.00
2023-05-06T04:39:47.205Z,100.00
2023-05-06T04:42:15.032Z,100.00
2023-05-06T04:44:43.184Z,100.00
2023-05-06T04:47:12.198Z,100.00
2023-05-06T04:49:40.600Z,100.00
2023-05-06T04:52:08.351Z,100.00
2023-05-06T04:54:36.574Z,100.00
2023-05-06T04:57:04.253Z,100.00
2023-05-06T04:59:31.852Z,100.00
2023-05-06T05:01:59.523Z,99.40
2023-05-06T05:04:28.695Z,98.54
2023-05-06T05:06:56.327Z,99.71
2023-05-06T05:09:23.974Z,100.00
2023-05-06T05:11:51.689Z,100.00
2023-05-06T05:14:19.369Z,100.00
2023-05-06T05:16:47.089Z,97.34
2023-05-06T05:19:14.768Z,96.96
2023-05-06T05:21:43.780Z,96.09
2023-05-06T05:24:11.423Z,97.73
2023-05-06T05:26:39.214Z,97.00
2023-05-06T05:29:07.368Z,98.49
2023-05-06T05:31:35.378Z,99.24
2023-05-06T05:34:03.072Z,99.69
2023-05-06T05:36:30.725Z,100.00
2023-05-06T05:38:59.721Z,100.00
2023-05-06T05:41:27.428Z,100.00
2023-05-06T05:43:55.046Z,100.00
2023-05-06T05:46:22.798Z,100.00
2023-05-06T05:48:50.569Z,100.00
2023-05-06T05:51:20.434Z,100.00
2023-05-06T05:53:48.261Z,95.70
2023-05-06T05:56:17.273Z,97.07
2023-05-06T05:58:44.960Z,97.28
2023-05-06T06:01:12.586Z,98.95
2023-05-06T06:03:40.407Z,100.00
2023-05-06T06:06:09.286Z,99.55
2023-05-06T06:08:37.385Z,100.00
2023-05-06T06:11:06.136Z,99.80
2023-05-06T06:13:35.225Z,97.57
2023-05-06T06:16:03.025Z,100.00
2023-05-06T06:18:30.810Z,100.00
2023-05-06T06:20:58.659Z,99.90
2023-05-06T06:23:26.388Z,100.00
2023-05-06T06:25:54.067Z,100.00
2023-05-06T06:28:22.264Z,100.00
2023-05-06T06:30:51.364Z,100.00
2023-05-06T06:33:19.003Z,100.00
2023-05-06T06:35:46.638Z,100.00
2023-05-06T06:38:14.261Z,96.04
2023-05-06T06:40:41.868Z,95.51
2023-05-06T06:43:09.469Z,98.86
2023-05-06T06:45:37.154Z,100.00
2023-05-06T06:48:06.683Z,99.23
2023-05-06T06:50:34.378Z,95.57
2023-05-06T06:53:04.230Z,97.78
2023-05-06T06:55:33.236Z,99.22
2023-05-06T06:58:00.876Z,99.78
2023-05-06T07:00:28.536Z,99.54
2023-05-06T07:02:56.236Z,100.00
2023-05-06T07:05:27.440Z,100.00
2023-05-06T07:07:55.440Z,100.00
2023-05-06T07:10:23.765Z,100.00
2023-05-06T07:12:51.834Z,99.32
2023-05-06T07:15:19.712Z,95.06
2023-05-06T07:17:50.320Z,99.67
2023-05-06T07:20:20.268Z,100.00
2023-05-06T07:22:49.272Z,100.00
2023-05-06T07:25:16.951Z,100.00
2023-05-06T07:27:44.629Z,100.00
2023-05-06T07:30:12.832Z,98.52
2023-05-06T07:32:41.196Z,96.63
2023-05-06T07:35:10.251Z,98.33
2023-05-06T07:37:38.156Z,98.13
2023-05-06T07:40:08.621Z,97.72
2023-05-06T07:42:36.228Z,94.64
2023-05-06T07:45:04.003Z,96.54
2023-05-06T07:47:33.370Z,94.93
2023-05-06T07:50:01.084Z,94.14
2023-05-06T07:52:28.912Z,95.75
2023-05-06T07:54:56.741Z,97.76
2023-05-06T07:57:25.918Z,100.00
2023-05-06T07:59:53.963Z,98.34
2023-05-06T08:02:21.777Z,96.31
2023-05-06T08:04:51.639Z,97.57
2023-05-06T08:07:19.903Z,98.32
2023-05-06T08:09:47.714Z,98.14
2023-05-06T08:12:15.841Z,98.26
2023-05-06T08:14:44.871Z,98.89
2023-05-06T08:17:14.020Z,99.76
2023-05-06T08:19:41.741Z,98.26
2023-05-06T08:22:09.426Z,96.29
2023-05-06T08:24:37.147Z,99.92
2023-05-06T08:27:04.960Z,100.00
2023-05-06T08:29:32.595Z,100.00
2023-05-06T08:32:01.723Z,100.00
2023-05-06T08:34:29.398Z,100.00
2023-05-06T08:36:57.083Z,100.00
2023-05-06T08:39:24.766Z,100.00
2023-05-06T08:41:55.424Z,98.68
2023-05-06T08:44:25.635Z,97.90
2023-05-06T08:46:53.610Z,94.83
2023-05-06T08:49:22.778Z,96.12
2023-05-06T08:51:52.533Z,97.03
2023-05-06T08:54:20.433Z,94.53
2023-05-06T08:56:53.818Z,96.08
2023-05-06T08:59:24.954Z,96.28
2023-05-06T09:01:53.149Z,91.84
2023-05-06T09:04:22.537Z,94.77
2023-05-06T09:06:50.130Z,93.17
2023-05-06T09:09:18.087Z,92.05
2023-05-06T09:11:45.938Z,95.91
2023-05-06T09:14:15.656Z,93.53
2023-05-06T09:16:44.599Z,96.11
2023-05-06T09:19:12.787Z,93.66
2023-05-06T09:21:43.204Z,90.55
2023-05-06T09:24:11.974Z,90.33
2023-05-06T09:26:41.694Z,97.07
2023-05-06T09:29:09.832Z,94.79
2023-05-06T09:31:42.572Z,91.07
2023-05-06T09:34:11.644Z,93.53
2023-05-06T09:36:41.308Z,93.95
2023-05-06T09:39:09.854Z,96.90
2023-05-06T09:41:37.634Z,97.23
2023-05-06T09:44:06.208Z,94.08
2023-05-06T09:46:34.356Z,96.53
2023-05-06T09:49:02.302Z,97.04
2023-05-06T09:51:32.586Z,95.90
2023-05-06T09:54:02.043Z,96.31
2023-05-06T09:56:31.484Z,93.23
2023-05-06T09:59:01.222Z,93.64
2023-05-06T10:01:36.560Z,94.51
2023-05-06T10:04:09.270Z,95.13
2023-05-06T10:06:39.402Z,95.16
2023-05-06T10:09:09.277Z,96.75
2023-05-06T10:11:38.139Z,95.07
2023-05-06T10:14:07.148Z,92.00
2023-05-06T10:16:35.750Z,93.41
2023-05-06T10:19:05.938Z,90.71
2023-05-06T10:21:37.079Z,92.93
2023-05-06T10:24:09.270Z,93.51
2023-05-06T10:26:38.885Z,91.97
2023-05-06T10:29:10.299Z,92.27
2023-05-06T10:31:45.318Z,93.54
2023-05-06T10:34:13.577Z,91.52
2023-05-06T10:36:44.557Z,91.53
2023-05-06T10:39:14.586Z,92.69
2023-05-06T10:41:42.539Z,91.72
2023-05-06T10:44:10.290Z,94.74
2023-05-06T10:46:59.825Z,96.30
2023-05-06T10:49:28.011Z,95.46
2023-05-06T10:52:11.954Z,95.70
2023-05-06T10:54:50.737Z,90.28
2023-05-06T10:57:20.700Z,93.18
2023-05-06T10:59:49.739Z,93.25
2023-05-06T11:02:19.874Z,91.99
2023-05-06T11:04:52.587Z,94.24
2023-05-06T11:07:24.930Z,91.80
2023-05-06T11:09:58.413Z,91.69
2023-05-06T11:12:47.262Z,91.52
2023-05-06T11:15:24.835Z,89.26
2023-05-06T11:17:54.098Z,90.59
2023-05-06T11:20:23.306Z,91.21
2023-05-06T11:22:51.211Z,90.13
2023-05-06T11:25:42.664Z,89.42
2023-05-06T11:28:12.555Z,92.68
2023-05-06T11:30:42.713Z,90.18
2023-05-06T11:33:18.169Z,90.37
2023-05-06T11:35:46.559Z,86.86
2023-05-06T11:38:14.281Z,88.92
2023-05-06T11:40:43.885Z,92.39
2023-05-06T11:43:12.642Z,92.38
2023-05-06T11:45:44.621Z,92.52
2023-05-06T11:48:13.266Z,94.35
2023-05-06T11:50:45.537Z,94.06
2023-05-06T11:53:13.343Z,93.93
2023-05-06T11:55:41.429Z,91.62
2023-05-06T11:58:16.597Z,94.07
2023-05-06T12:00:51.416Z,91.11
2023-05-06T12:03:19.630Z,88.33
2023-05-06T12:05:48.725Z,91.92
2023-05-06T12:08:26.738Z,90.78
2023-05-06T12:10:56.909Z,90.34
2023-05-06T12:13:26.137Z,91.02
2023-05-06T12:15:55.883Z,89.91
2023-05-06T12:18:24.443Z,92.71
2023-05-06T12:20:54.636Z,90.56
2023-05-06T12:23:22.736Z,91.71
2023-05-06T12:26:02.299Z,91.80
2023-05-06T12:28:32.101Z,89.51
2023-05-06T12:30:59.739Z,88.77
2023-05-06T12:33:27.519Z,91.74
2023-05-06T12:35:58.199Z,91.82
2023-05-06T12:38:25.987Z,92.09
2023-05-06T12:40:55.473Z,89.06
2023-05-06T12:43:32.277Z,90.16
2023-05-06T12:46:07.294Z,89.46
2023-05-06T12:48:35.416Z,90.64
2023-05-06T12:51:18.816Z,90.27
2023-05-06T12:53:46.523Z,87.71
2023-05-06T12:56:14.311Z,89.27
2023-05-06T12:58:43.346Z,92.02
2023-05-06T13:01:11.046Z,92.99
2023-05-06T13:03:40.780Z,93.43
2023-05-06T13:06:08.917Z,93.29
2023-05-06T13:08:36.489Z,93.46
2023-05-06T13:11:04.102Z,92.51
2023-05-06T13:13:31.727Z,90.79
2023-05-06T13:16:01.511Z,90.67
2023-05-06T13:18:30.240Z,90.71
2023-05-06T13:21:00.134Z,87.68
2023-05-06T13:23:27.978Z,89.76
2023-05-06T13:26:04.206Z,87.12
2023-05-06T13:28:35.372Z,91.50
2023-05-06T13:31:04.895Z,93.77
2023-05-06T13:33:32.629Z,91.70
2023-05-06T13:36:00.319Z,90.44
2023-05-06T13:38:27.994Z,89.16
2023-05-06T13:40:55.828Z,89.29
2023-05-06T13:43:25.536Z,90.24
2023-05-06T13:45:53.907Z,91.64
2023-05-06T13:48:22.939Z,93.85
2023-05-06T13:50:50.790Z,91.79
2023-05-06T13:53:18.428Z,89.18
2023-05-06T13:55:46.924Z,93.08
2023-05-06T13:58:14.575Z,91.39
2023-05-06T14:00:42.211Z,93.48
2023-05-06T14:03:09.870Z,92.34
2023-05-06T14:05:38.888Z,91.42
2023-05-06T14:08:08.260Z,90.05
2023-05-06T14:10:36.043Z,87.15
2023-05-06T14:13:05.534Z,86.59
2023-05-06T14:15:34.636Z,91.00
2023-05-06T14:18:02.453Z,90.96
2023-05-06T14:20:30.178Z,88.43
2023-05-06T14:22:59.209Z,92.34
2023-05-06T14:25:27.988Z,89.63
2023-05-06T14:27:55.921Z,90.61
2023-05-06T14:30:23.750Z,87.20
2023-05-06T14:32:51.447Z,87.89
2023-05-06T14:35:19.662Z,85.97
2023-05-06T14:37:47.537Z,85.70
2023-05-06T14:40:17.953Z,88.99
2023-05-06T14:42:46.180Z,90.76
2023-05-06T14:45:15.701Z,88.57
2023-05-06T14:47:43.614Z,88.30
2023-05-06T14:50:12.169Z,91.52
2023-05-06T14:52:40.796Z,91.85
2023-05-06T14:55:11.819Z,89.29
2023-05-06T14:57:41.126Z,90.02
2023-05-06T15:00:10.179Z,89.38
2023-05-06T15:02:40.525Z,91.19
2023-05-06T15:05:10.043Z,87.62
2023-05-06T15:07:37.988Z,87.79
2023-05-06T15:10:06.407Z,85.84
2023-05-06T15:12:34.709Z,87.69
2023-05-06T15:15:05.135Z,87.98
2023-05-06T15:17:33.471Z,88.31
2023-05-06T15:20:01.196Z,91.20
2023-05-06T15:22:28.913Z,90.33
2023-05-06T15:24:56.520Z,89.47
2023-05-06T15:27:24.194Z,88.44
2023-05-06T15:29:51.801Z,90.44
2023-05-06T15:32:20.891Z,90.32
2023-05-06T15:34:48.523Z,88.91
2023-05-06T15:37:19.180Z,92.17
2023-05-06T15:39:47.794Z,93.24
2023-05-06T15:42:16.893Z,93.13
2023-05-06T15:44:44.681Z,94.50
2023-05-06T15:47:12.381Z,90.76
2023-05-06T15:52:12.313Z,87.70
2023-05-06T15:54:40.989Z,88.77
2023-05-06T15:57:09.603Z,88.55
2023-05-06T15:59:37.345Z,89.59
2023-05-06T16:04:35.660Z,91.80
2023-05-06T16:07:04.768Z,88.41
2023-05-06T16:09:32.578Z,90.98
2023-05-06T16:12:00.196Z,90.77
2023-05-06T16:14:27.812Z,89.12
2023-05-06T16:16:55.453Z,90.48
2023-05-06T16:19:23.251Z,89.20
2023-05-06T16:21:51.019Z,90.22
2023-05-06T16:24:20.034Z,92.01
2023-05-06T16:26:47.688Z,91.14
2023-05-06T16:29:15.688Z,87.51
2023-05-06T16:31:43.371Z,87.32
2023-05-06T16:34:11.077Z,89.34
2023-05-06T16:36:38.828Z,86.82
2023-05-06T16:39:06.951Z,88.24
2023-05-06T16:41:36.041Z,92.76
2023-05-06T16:44:04.163Z,93.05
2023-05-06T16:46:33.339Z,93.06
2023-05-06T16:49:03.536Z,89.75
2023-05-06T16:51:31.418Z,90.76
2023-05-06T16:53:59.149Z,92.35
2023-05-06T16:56:32.986Z,92.81
2023-05-06T16:59:09.551Z,94.30
2023-05-06T17:01:37.132Z,93.35
2023-05-06T17:04:04.931Z,94.11
2023-05-06T17:06:33.016Z,93.54
2023-05-06T17:09:00.676Z,92.80
2023-05-06T17:11:28.385Z,93.66
2023-05-06T17:13:56.027Z,92.33
2023-05-06T17:16:25.062Z,93.62
2023-05-06T17:18:52.697Z,92.55
2023-05-06T17:21:21.422Z,91.86
2023-05-06T17:23:50.583Z,94.91
2023-05-06T17:26:18.457Z,93.72
2023-05-06T17:28:46.927Z,92.75
2023-05-06T17:31:15.869Z,94.73
2023-05-06T17:33:45.241Z,97.27
2023-05-06T17:36:13.662Z,94.48
2023-05-06T17:38:41.282Z,94.00
2023-05-06T17:41:09.016Z,94.28
2023-05-06T17:43:36.666Z,94.00
2023-05-06T17:46:04.451Z,91.32
2023-05-06T17:48:32.081Z,92.41
2023-05-06T17:51:03.159Z,93.07
2023-05-06T17:53:32.266Z,93.88
2023-05-06T17:55:59.983Z,95.09
2023-05-06T17:58:27.586Z,93.62
2023-05-06T18:00:55.247Z,93.79
2023-05-06T18:03:23.712Z,92.31
2023-05-06T18:05:51.487Z,92.91
2023-05-06T18:08:20.518Z,94.13
2023-05-06T18:10:48.163Z,93.88
2023-05-06T18:13:16.082Z,92.78
2023-05-06T18:15:44.035Z,93.88
2023-05-06T18:18:11.691Z,94.53
2023-05-06T18:20:39.847Z,95.63
2023-05-06T18:23:09.113Z,94.65
2023-05-06T18:25:38.083Z,94.92
2023-05-06T18:28:05.937Z,96.03
2023-05-06T18:30:33.575Z,95.46
2023-05-06T18:33:01.218Z,96.66
2023-05-06T18:35:28.924Z,94.97
2023-05-06T18:37:56.532Z,95.23
2023-05-06T18:40:24.239Z,94.17
2023-05-06T18:42:53.226Z,96.57
2023-05-06T18:45:21.443Z,97.39
2023-05-06T18:47:49.081Z,95.63
2023-05-06T18:50:16.710Z,97.58
2023-05-06T18:52:44.365Z,96.99
2023-05-06T18:55:12.225Z,99.59
2023-05-06T18:57:40.064Z,98.83
2023-05-06T19:00:10.898Z,96.62
2023-05-06T19:02:38.671Z,94.94
2023-05-06T19:05:07.684Z,96.13
2023-05-06T19:07:35.609Z,97.75
2023-05-06T19:10:03.264Z,94.92
2023-05-06T19:12:31.090Z,96.03
2023-05-06T19:14:58.704Z,97.47
2023-05-06T19:17:28.536Z,97.81
2023-05-06T19:19:56.115Z,99.38
2023-05-06T19:22:24.129Z,98.83
2023-05-06T19:24:52.720Z,96.52
2023-05-06T19:27:20.348Z,98.10
2023-05-06T19:29:48.231Z,98.88
2023-05-06T19:32:15.849Z,98.74
2023-05-06T19:34:44.799Z,96.09
2023-05-06T19:37:12.407Z,95.23
2023-05-06T19:39:40.020Z,95.94
2023-05-06T19:42:08.524Z,91.88
2023-05-06T19:44:36.209Z,95.18
2023-05-06T19:47:03.818Z,95.65
2023-05-06T19:49:32.495Z,95.80
2023-05-06T19:52:01.761Z,95.60
2023-05-06T19:54:29.432Z,95.77
2023-05-06T19:56:57.023Z,94.30
2023-05-06T19:59:24.766Z,95.78
2023-05-06T20:01:53.215Z,94.41
2023-05-06T20:04:20.998Z,94.04
2023-05-06T20:06:48.648Z,94.14
2023-05-06T20:09:17.580Z,92.48
2023-05-06T20:11:47.080Z,92.29
2023-05-06T20:14:14.853Z,92.93
2023-05-06T20:16:42.552Z,92.34
2023-05-06T20:19:11.261Z,92.47
2023-05-06T20:21:40.186Z,92.04
2023-05-06T20:24:08.053Z,91.74
2023-05-06T20:26:37.024Z,93.80
2023-05-06T20:29:04.676Z,92.44
2023-05-06T20:31:32.337Z,94.58
2023-05-06T20:34:00.024Z,96.86
2023-05-06T20:36:28.075Z,96.09
2023-05-06T20:38:55.668Z,96.63
2023-05-06T20:41:23.307Z,96.45
2023-05-06T20:43:53.979Z,96.13
2023-05-06T20:46:21.820Z,93.74
2023-05-06T20:48:51.384Z,94.98
2023-05-06T20:51:19.466Z,92.10
2023-05-06T20:53:47.481Z,92.76
2023-05-06T20:56:19.122Z,92.51
2023-05-06T20:58:46.762Z,91.91
2023-05-06T21:01:15.978Z,94.46
2023-05-06T21:03:43.768Z,95.65
2023-05-06T21:06:11.446Z,94.61
2023-05-06T21:08:39.113Z,94.63
2023-05-06T21:11:06.738Z,95.77
2023-05-06T21:13:34.344Z,95.05
2023-05-06T21:16:01.972Z,91.98
2023-05-06T21:18:31.064Z,90.14
2023-05-06T21:20:59.563Z,92.00
2023-05-06T21:23:27.275Z,93.61
2023-05-06T21:25:54.914Z,94.21
2023-05-06T21:28:22.565Z,94.15
2023-05-06T21:30:50.270Z,95.84
2023-05-06T21:33:17.878Z,95.68
2023-05-06T21:35:46.826Z,95.52
2023-05-06T21:38:14.495Z,95.24
2023-05-06T21:40:42.122Z,94.57
2023-05-06T21:43:09.770Z,93.97
2023-05-06T21:45:37.524Z,94.61
2023-05-06T21:48:05.376Z,92.98
2023-05-06T21:50:33.670Z,95.36
2023-05-06T21:53:03.576Z,93.51
2023-05-06T21:55:31.366Z,96.74
2023-05-06T21:57:58.990Z,96.31
2023-05-06T22:00:26.703Z,96.70
2023-05-06T22:02:54.455Z,95.92
2023-05-06T22:05:22.500Z,96.69
2023-05-06T22:07:50.855Z,95.26
2023-05-06T22:10:19.896Z,95.65
2023-05-06T22:12:47.610Z,96.21
2023-05-06T22:15:15.593Z,94.56
2023-05-06T22:17:43.422Z,95.32
2023-05-06T22:20:11.968Z,95.57
2023-05-06T22:22:39.685Z,94.71
2023-05-06T22:25:08.595Z,94.43
2023-05-06T22:27:38.024Z,96.07
2023-05-06T22:30:06.245Z,94.18
2023-05-06T22:32:33.899Z,94.06
2023-05-06T22:35:01.717Z,93.78
2023-05-06T22:37:29.417Z,93.46
2023-05-06T22:39:57.161Z,93.97
2023-05-06T22:42:25.134Z,95.01
2023-05-06T22:44:54.095Z,95.65
2023-05-06T22:47:21.735Z,94.21
2023-05-06T22:49:49.409Z,92.34
2023-05-06T22:52:18.976Z,94.98
2023-05-06T22:54:46.671Z,96.84
2023-05-06T22:57:14.807Z,94.84
2023-05-06T22:59:42.401Z,94.48
2023-05-06T23:02:11.834Z,92.09
2023-05-06T23:04:40.315Z,91.37
2023-05-06T23:07:07.954Z,95.75
2023-05-06T23:09:35.619Z,94.75
2023-05-06T23:12:03.669Z,94.87
2023-05-06T23:14:31.373Z,95.46
2023-05-06T23:16:59.216Z,94.56
2023-05-06T23:19:28.320Z,96.87
2023-05-06T23:21:56.480Z,96.57
2023-05-06T23:24:24.141Z,96.29
2023-05-06T23:26:51.984Z,95.13
2023-05-06T23:29:19.761Z,94.21
2023-05-06T23:31:47.447Z,96.18
2023-05-06T23:34:15.066Z,95.81
2023-05-06T23:36:44.031Z,95.38
2023-05-06T23:39:12.176Z,96.76
2023-05-06T23:41:39.883Z,94.16
2023-05-06T23:44:07.539Z,94.75
2023-05-06T23:46:35.270Z,96.20
2023-05-06T23:49:03.105Z,95.20
2023-05-06T23:51:31.682Z,95.71
2023-05-06T23:54:00.664Z,95.77
2023-05-06T23:56:28.496Z,95.25
2023-05-06T23:58:56.130Z,94.25
